Antioch, Tennessee
Current Conditions -  °F | °C
As of 10:53 PM on Friday 31 Oct 2014 (Local Time) from KBNA Reporting Station
Overcast Overcast  
Wind Chill: 33°   Ceiling: 4600
Heat Index: 42°   Visibility: 10mi
Dew Point: 25°   Wind: 20mph
Humidity: 51%   Direction: 330°NNW
Pressure: 30.14"   Gusts: 30mph
Location:  36.06°N, 86.67°W
Report Text: KBNA 010353Z 33017G26KT 10SM OVC046 06/M04 A3014 RMK AO2 PK WND 34029/0327 SLP206 T00561039
Loading
Personal Weather Stations






























Interactive Weather Map
Tropical Storm Tracking
New forecast layout! Learn more

10-Day Weather Forecast

Advertisements
Track Severe Weather on mobile